Aérodrome :
LOGIN :

S'inscrire | Disclaimer

   EN    FR    IT 

 










Légende :    VFR   VFR Marginal   IFR   IFR Intensif   IFR Très Intensif
Visi : 
Plafond : 
>= 8 km
>= 3000ft
5 à 8 km
1000 à 3000 ft
1500m à 5 km
500 à 1000 ft
800 à 1500m
200 à 500 ft
< 800m
< 200 ft
Symboles :   Orages  Brouillard  Fortes neiges  Fortes précipitations  Vent > 20 kt
SIGMETs :   Divers  Orages  Givrage  Turbulence  Onde Orograph.  Cendres Volcan.







- Altitude de l'aérodrome : 256 ft
- Code IATA : CFR
- Voir les cartes d'approche


LFRK - Caen

DERNIER METAR :
  • 251030Z AUTO 29014KT 260V320 9999 FEW029 BKN034 BKN040 13/06 Q1017 TEMPO SHRA BECMG 27017G30KT

METARs EXPIRÉS :
  • 251000Z AUTO 28013KT 9999 SCT026 BKN033 BKN039 14/08 Q1017 TEMPO SHRA BECMG 27017G30KT
  • 250930Z AUTO 27014KT 240V300 9999 BKN026 13/08 Q1017 TEMPO SHRA BECMG 27017G30KT
  • 250900Z AUTO 27012KT 9999 BKN022 BKN027 12/08 Q1017 NOSIG
  • 250830Z AUTO 27010KT 9999 BKN021/// 12/08 Q1017 NOSIG
  • 250800Z AUTO 28009KT 9999 OVC020 11/08 Q1016 NOSIG
  • 250730Z AUTO 28009KT 250V310 9999 OVC017 10/07 Q1016 NOSIG

TAF TAF LFRK
Valide du 25 à 09h jusqu'au 25 à 18h UTC


250800Z 2509/2518 27012KT 9999 BKN020
PROB30
TEMPO 2511/2515 5000 SHRA
BECMG 2511/2513 27017G30KT
TEMPO 2515/2518 28020G35KT 4000 SHRA BKN015TCU
Météo : +33 2 31 26 68 11
Pas de NOTAMs connus pour ce terrain.



MET'MAP, la Météo Aéronautique d'un coup d'oeil ! - Copyright ORBIFLY Décembre 2007 - Disclaimer

ORBIFLY MET'MAP TEAM :

Programmation & Développement : Alexandra Zaïnal
Conception & Développement : Baudouin d'Aumeries
Co-Programmation & Développement : Marc-Olivier Méhu
Soutien technique & logistique : Manuel Goepfert

Contact : metmap@orbifly.com




SOURCES & CREDITS :

   NOAA